This is the latest recevied weather packets stored in our database for station/object OE-11121. If no packets are shown the sender has not sent any weather packets the latest 10 day(s).
| Time | Temp. | Humidity | Pressure | Rain* | Wind** | Luminosity | Snow |
|---|---|---|---|---|---|---|---|
| 1787943933 | 19.44° C | 84% | 1013.5 hPa | 0 mm | - | 0 W/m² | - |
| 1787943332 | 20° C | 83% | 1013.7 hPa | 0 mm | - | 0 W/m² | - |
| 1787942506 | 20° C | 82% | 1013.9 hPa | 0 mm | - | 0 W/m² | - |
| 1787941523 | 20° C | 80% | 1013.5 hPa | 0 mm | - | 0 W/m² | - |
| 1787940706 | 20.56° C | 80% | 1012.8 hPa | 0.51 mm | - | 12 W/m² | - |
| 1787940332 | 20° C | 82% | 1012.6 hPa | 0.51 mm | - | 12 W/m² | - |
| 1787939732 | 20.56° C | 78% | 1012.7 hPa | 0.51 mm | - | 0 W/m² | - |
| 1787938906 | 20.56° C | 78% | 1012.8 hPa | 0.51 mm | - | 0 W/m² | - |
| 1787938533 | 20.56° C | 80% | 1013 hPa | 0.51 mm | - | 12 W/m² | - |
| 1787937933 | 21.67° C | 74% | 1012.6 hPa | 0.51 mm | - | 12 W/m² | - |
| 1787937106 | 21.67° C | 74% | 1012.1 hPa | 0.25 mm | - | 12 W/m² | - |
| 1787936732 | 22.78° C | 66% | 1012.2 hPa | 0 mm | - | 0 W/m² | - |
| 1787936132 | 23.33° C | 64% | 1011.9 hPa | 0 mm | - | 12 W/m² | - |
| 1787935306 | 23.33° C | 62% | 1011.7 hPa | 0 mm | - | 24 W/m² | - |
| 1787934933 | 23.89° C | 60% | 1011.5 hPa | 0 mm | - | 60 W/m² | - |
| 1787934333 | 23.89° C | 59% | 1011.3 hPa | 0 mm | - | 60 W/m² | - |
| 1787933506 | 24.44° C | 58% | 1011.5 hPa | 0 mm | - | 60 W/m² | - |
| 1787933133 | 24.44° C | 57% | 1010.7 hPa | 0 mm | - | 84 W/m² | - |
| 1787932533 | 25.56° C | 56% | 1010.4 hPa | 0 mm | - | 108 W/m² | - |
| 1787931706 | 25.56° C | 59% | 1010.2 hPa | 0 mm | - | 84 W/m² | - |
| 1787931333 | 25° C | 60% | 1010.1 hPa | 0 mm | - | 96 W/m² | - |
| 1787930733 | 25.56° C | 58% | 1010 hPa | 0 mm | - | 84 W/m² | - |
| 1787929906 | 25.56° C | 57% | 1009.9 hPa | 0 mm | - | 132 W/m² | - |
| 1787929532 | 26.11° C | 55% | 1009.8 hPa | 0 mm | - | 204 W/m² | - |
| 1787928932 | 26.67° C | 55% | 1009.5 hPa | 0 mm | - | 469 W/m² | - |
* Rain latest hour (hover to see other rain measurements)
** Current wind speed in m/s (hover to see current wind gust speed)